Terminal Aerodrome Forecast
Issued by NWS

Home | Current Version | Previous Version | Text Only | Print | Product List | Glossary On
Versions: 1 2 3 4 5 6 7 8 9 10 11 12 13 14 15
000
FTUS46 KMTR 041312 AAA
TAFSJC
TAF AMD
KSJC 041312Z 0413/0512 31004KT P6SM FEW004 BKN010 OVC012
     FM041700 32012KT P6SM VCSH SCT016 BKN060
     FM042200 30008KT P6SM VCSH SCT012 BKN040
     FM050300 24004KT P6SM SCT020 BKN040
     FM050700 16005KT P6SM BKN015 OVC080=

USA.gov is the U.S. government's official web portal to all federal, state and local government web resources and services.